sensor_id;sensor_type;location;lat;lon;timestamp;P1;durP1;ratioP1;P2;durP2;ratioP2
86019;SDS011;76596;51.056;-1.798;2024-03-02T00:01:50;3.00;;;1.33;;
86019;SDS011;76596;51.056;-1.798;2024-03-02T00:04:15;3.73;;;0.83;;
86019;SDS011;76596;51.056;-1.798;2024-03-02T00:06:42;2.58;;;0.57;;
86019;SDS011;76596;51.056;-1.798;2024-03-02T00:09:08;8.80;;;1.35;;
86019;SDS011;76596;51.056;-1.798;2024-03-02T00:11:37;7.60;;;1.50;;
86019;SDS011;76596;51.056;-1.798;2024-03-02T00:14:03;7.82;;;1.50;;
86019;SDS011;76596;51.056;-1.798;2024-03-02T00:16:31;9.52;;;1.55;;
86019;SDS011;76596;51.056;-1.798;2024-03-02T00:19:03;1.90;;;0.93;;
86019;SDS011;76596;51.056;-1.798;2024-03-02T00:21:32;6.28;;;1.00;;
86019;SDS011;76596;51.056;-1.798;2024-03-02T00:23:58;3.47;;;1.23;;
86019;SDS011;76596;51.056;-1.798;2024-03-02T00:26:24;1.60;;;0.77;;
86019;SDS011;76596;51.056;-1.798;2024-03-02T00:28:50;3.63;;;0.90;;
86019;SDS011;76596;51.056;-1.798;2024-03-02T00:31:20;7.53;;;0.82;;
86019;SDS011;76596;51.056;-1.798;2024-03-02T00:33:48;2.27;;;1.00;;
86019;SDS011;76596;51.056;-1.798;2024-03-02T00:36:15;8.00;;;1.48;;
86019;SDS011;76596;51.056;-1.798;2024-03-02T00:38:47;6.50;;;1.23;;
86019;SDS011;76596;51.056;-1.798;2024-03-02T00:41:35;2.17;;;0.30;;
86019;SDS011;76596;51.056;-1.798;2024-03-02T00:44:06;7.47;;;2.05;;
86019;SDS011;76596;51.056;-1.798;2024-03-02T00:46:34;2.40;;;0.60;;
86019;SDS011;76596;51.056;-1.798;2024-03-02T00:49:02;4.40;;;0.80;;
86019;SDS011;76596;51.056;-1.798;2024-03-02T00:51:30;3.90;;;1.30;;
86019;SDS011;76596;51.056;-1.798;2024-03-02T00:54:03;4.20;;;0.65;;
86019;SDS011;76596;51.056;-1.798;2024-03-02T00:56:30;8.13;;;1.27;;
86019;SDS011;76596;51.056;-1.798;2024-03-02T00:58:57;5.88;;;1.00;;
86019;SDS011;76596;51.056;-1.798;2024-03-02T01:01:22;4.13;;;1.23;;
86019;SDS011;76596;51.056;-1.798;2024-03-02T01:03:48;1.85;;;0.55;;
86019;SDS011;76596;51.056;-1.798;2024-03-02T01:06:15;6.03;;;1.02;;
86019;SDS011;76596;51.056;-1.798;2024-03-02T01:08:41;2.63;;;0.82;;
86019;SDS011;76596;51.056;-1.798;2024-03-02T01:11:07;9.18;;;1.00;;
86019;SDS011;76596;51.056;-1.798;2024-03-02T01:13:32;2.45;;;0.98;;
86019;SDS011;76596;51.056;-1.798;2024-03-02T01:15:58;6.05;;;1.95;;
86019;SDS011;76596;51.056;-1.798;2024-03-02T01:18:24;1.95;;;0.77;;
86019;SDS011;76596;51.056;-1.798;2024-03-02T01:20:50;1.67;;;0.75;;
86019;SDS011;76596;51.056;-1.798;2024-03-02T01:23:19;9.82;;;1.05;;
86019;SDS011;76596;51.056;-1.798;2024-03-02T01:25:46;2.42;;;1.38;;
86019;SDS011;76596;51.056;-1.798;2024-03-02T01:28:12;12.00;;;1.27;;
86019;SDS011;76596;51.056;-1.798;2024-03-02T01:30:38;4.03;;;0.88;;
86019;SDS011;76596;51.056;-1.798;2024-03-02T01:33:03;5.63;;;2.43;;
86019;SDS011;76596;51.056;-1.798;2024-03-02T01:35:30;2.47;;;0.73;;
86019;SDS011;76596;51.056;-1.798;2024-03-02T01:37:58;1.98;;;0.95;;
86019;SDS011;76596;51.056;-1.798;2024-03-02T01:40:23;0.73;;;0.45;;
86019;SDS011;76596;51.056;-1.798;2024-03-02T01:42:52;0.52;;;0.28;;
86019;SDS011;76596;51.056;-1.798;2024-03-02T01:45:23;6.03;;;0.88;;
86019;SDS011;76596;51.056;-1.798;2024-03-02T01:47:48;1.95;;;0.22;;
86019;SDS011;76596;51.056;-1.798;2024-03-02T01:50:14;0.63;;;0.20;;
86019;SDS011;76596;51.056;-1.798;2024-03-02T01:52:40;1.35;;;0.20;;
86019;SDS011;76596;51.056;-1.798;2024-03-02T01:55:06;0.08;;;0.00;;
86019;SDS011;76596;51.056;-1.798;2024-03-02T01:57:32;1.55;;;0.20;;
86019;SDS011;76596;51.056;-1.798;2024-03-02T01:59:58;0.20;;;0.13;;
86019;SDS011;76596;51.056;-1.798;2024-03-02T02:02:25;5.88;;;2.13;;
86019;SDS011;76596;51.056;-1.798;2024-03-02T02:04:50;2.17;;;0.28;;
86019;SDS011;76596;51.056;-1.798;2024-03-02T02:07:15;0.77;;;0.30;;
86019;SDS011;76596;51.056;-1.798;2024-03-02T02:09:43;0.67;;;0.63;;
86019;SDS011;76596;51.056;-1.798;2024-03-02T02:12:09;3.92;;;0.45;;
86019;SDS011;76596;51.056;-1.798;2024-03-02T02:14:35;0.30;;;0.20;;
86019;SDS011;76596;51.056;-1.798;2024-03-02T02:17:01;1.45;;;0.38;;
86019;SDS011;76596;51.056;-1.798;2024-03-02T02:19:26;0.82;;;0.30;;
86019;SDS011;76596;51.056;-1.798;2024-03-02T02:21:52;2.10;;;0.65;;
86019;SDS011;76596;51.056;-1.798;2024-03-02T02:24:17;2.90;;;0.37;;
86019;SDS011;76596;51.056;-1.798;2024-03-02T02:26:42;3.17;;;0.60;;
86019;SDS011;76596;51.056;-1.798;2024-03-02T02:29:08;1.40;;;0.30;;
86019;SDS011;76596;51.056;-1.798;2024-03-02T02:31:37;6.10;;;1.00;;
86019;SDS011;76596;51.056;-1.798;2024-03-02T02:34:03;0.35;;;0.35;;
86019;SDS011;76596;51.056;-1.798;2024-03-02T02:36:28;0.20;;;0.20;;
86019;SDS011;76596;51.056;-1.798;2024-03-02T02:38:54;2.23;;;0.40;;
86019;SDS011;76596;51.056;-1.798;2024-03-02T02:41:20;0.25;;;0.15;;
86019;SDS011;76596;51.056;-1.798;2024-03-02T02:43:45;4.95;;;0.80;;
86019;SDS011;76596;51.056;-1.798;2024-03-02T02:46:10;3.35;;;0.50;;
86019;SDS011;76596;51.056;-1.798;2024-03-02T02:48:36;4.63;;;0.70;;
86019;SDS011;76596;51.056;-1.798;2024-03-02T02:51:01;0.93;;;0.50;;
86019;SDS011;76596;51.056;-1.798;2024-03-02T02:53:27;6.32;;;1.70;;
86019;SDS011;76596;51.056;-1.798;2024-03-02T02:55:52;3.80;;;0.70;;
86019;SDS011;76596;51.056;-1.798;2024-03-02T02:58:17;1.63;;;0.53;;
86019;SDS011;76596;51.056;-1.798;2024-03-02T03:00:43;3.90;;;0.60;;
86019;SDS011;76596;51.056;-1.798;2024-03-02T03:03:08;1.23;;;0.77;;
86019;SDS011;76596;51.056;-1.798;2024-03-02T03:05:33;4.18;;;0.80;;
86019;SDS011;76596;51.056;-1.798;2024-03-02T03:07:59;0.47;;;0.40;;
86019;SDS011;76596;51.056;-1.798;2024-03-02T03:10:24;5.70;;;2.27;;
86019;SDS011;76596;51.056;-1.798;2024-03-02T03:12:51;3.47;;;1.38;;
86019;SDS011;76596;51.056;-1.798;2024-03-02T03:15:17;9.50;;;1.05;;
86019;SDS011;76596;51.056;-1.798;2024-03-02T03:17:42;4.72;;;1.60;;
86019;SDS011;76596;51.056;-1.798;2024-03-02T03:20:08;11.70;;;1.67;;
86019;SDS011;76596;51.056;-1.798;2024-03-02T03:22:37;9.98;;;2.30;;
86019;SDS011;76596;51.056;-1.798;2024-03-02T03:25:03;5.72;;;2.22;;
86019;SDS011;76596;51.056;-1.798;2024-03-02T03:27:29;13.73;;;2.25;;
86019;SDS011;76596;51.056;-1.798;2024-03-02T03:29:54;7.23;;;0.80;;
86019;SDS011;76596;51.056;-1.798;2024-03-02T03:32:20;4.80;;;1.20;;
86019;SDS011;76596;51.056;-1.798;2024-03-02T03:34:45;2.17;;;1.02;;
86019;SDS011;76596;51.056;-1.798;2024-03-02T03:37:13;1.25;;;0.50;;
86019;SDS011;76596;51.056;-1.798;2024-03-02T03:39:38;0.70;;;0.25;;
86019;SDS011;76596;51.056;-1.798;2024-03-02T03:42:03;1.23;;;0.60;;
86019;SDS011;76596;51.056;-1.798;2024-03-02T03:44:29;0.40;;;0.30;;
86019;SDS011;76596;51.056;-1.798;2024-03-02T03:46:54;1.30;;;0.50;;
86019;SDS011;76596;51.056;-1.798;2024-03-02T03:49:20;4.80;;;0.50;;
86019;SDS011;76596;51.056;-1.798;2024-03-02T03:51:45;2.20;;;1.20;;
86019;SDS011;76596;51.056;-1.798;2024-03-02T03:54:11;1.23;;;0.52;;
86019;SDS011;76596;51.056;-1.798;2024-03-02T03:56:36;1.88;;;0.45;;
86019;SDS011;76596;51.056;-1.798;2024-03-02T03:59:02;1.10;;;0.50;;
86019;SDS011;76596;51.056;-1.798;2024-03-02T04:01:27;2.28;;;0.30;;
86019;SDS011;76596;51.056;-1.798;2024-03-02T04:03:53;1.00;;;0.22;;
86019;SDS011;76596;51.056;-1.798;2024-03-02T04:06:18;3.43;;;0.90;;
86019;SDS011;76596;51.056;-1.798;2024-03-02T04:08:43;0.67;;;0.60;;
86019;SDS011;76596;51.056;-1.798;2024-03-02T04:11:09;2.00;;;0.30;;
86019;SDS011;76596;51.056;-1.798;2024-03-02T04:13:34;1.20;;;0.53;;
86019;SDS011;76596;51.056;-1.798;2024-03-02T04:15:59;3.20;;;0.83;;
86019;SDS011;76596;51.056;-1.798;2024-03-02T04:18:25;5.80;;;0.47;;
86019;SDS011;76596;51.056;-1.798;2024-03-02T04:20:50;3.00;;;0.50;;
86019;SDS011;76596;51.056;-1.798;2024-03-02T04:23:15;1.90;;;1.13;;
86019;SDS011;76596;51.056;-1.798;2024-03-02T04:25:41;5.90;;;0.60;;
86019;SDS011;76596;51.056;-1.798;2024-03-02T04:28:06;1.53;;;0.73;;
86019;SDS011;76596;51.056;-1.798;2024-03-02T04:30:32;7.27;;;0.77;;
86019;SDS011;76596;51.056;-1.798;2024-03-02T04:32:57;2.33;;;0.70;;
86019;SDS011;76596;51.056;-1.798;2024-03-02T04:35:22;4.80;;;1.13;;
86019;SDS011;76596;51.056;-1.798;2024-03-02T04:37:48;4.95;;;1.10;;
86019;SDS011;76596;51.056;-1.798;2024-03-02T04:40:13;4.80;;;0.93;;
86019;SDS011;76596;51.056;-1.798;2024-03-02T04:42:39;6.05;;;0.90;;
86019;SDS011;76596;51.056;-1.798;2024-03-02T04:45:05;3.45;;;0.90;;
86019;SDS011;76596;51.056;-1.798;2024-03-02T04:47:31;5.53;;;0.50;;
86019;SDS011;76596;51.056;-1.798;2024-03-02T04:49:56;4.40;;;0.97;;
86019;SDS011;76596;51.056;-1.798;2024-03-02T04:52:21;1.73;;;0.67;;
86019;SDS011;76596;51.056;-1.798;2024-03-02T04:54:47;4.83;;;1.00;;
86019;SDS011;76596;51.056;-1.798;2024-03-02T04:57:30;1.45;;;0.60;;
86019;SDS011;76596;51.056;-1.798;2024-03-02T04:59:56;4.13;;;0.80;;
86019;SDS011;76596;51.056;-1.798;2024-03-02T05:02:21;2.10;;;0.40;;
86019;SDS011;76596;51.056;-1.798;2024-03-02T05:04:46;1.47;;;0.83;;
86019;SDS011;76596;51.056;-1.798;2024-03-02T05:07:13;1.60;;;0.90;;
86019;SDS011;76596;51.056;-1.798;2024-03-02T05:09:39;2.17;;;0.65;;
86019;SDS011;76596;51.056;-1.798;2024-03-02T05:12:05;1.73;;;0.68;;
86019;SDS011;76596;51.056;-1.798;2024-03-02T05:14:42;3.20;;;0.60;;
86019;SDS011;76596;51.056;-1.798;2024-03-02T05:17:08;3.20;;;0.80;;
86019;SDS011;76596;51.056;-1.798;2024-03-02T05:19:33;5.00;;;0.70;;
86019;SDS011;76596;51.056;-1.798;2024-03-02T05:21:58;1.45;;;0.65;;
86019;SDS011;76596;51.056;-1.798;2024-03-02T05:24:24;0.60;;;0.35;;
86019;SDS011;76596;51.056;-1.798;2024-03-02T05:26:52;1.88;;;0.63;;
86019;SDS011;76596;51.056;-1.798;2024-03-02T05:29:17;1.75;;;0.47;;
86019;SDS011;76596;51.056;-1.798;2024-03-02T05:31:43;1.33;;;0.68;;
86019;SDS011;76596;51.056;-1.798;2024-03-02T05:34:08;1.47;;;0.77;;
86019;SDS011;76596;51.056;-1.798;2024-03-02T05:36:33;5.53;;;1.03;;
86019;SDS011;76596;51.056;-1.798;2024-03-02T05:38:59;1.03;;;0.83;;
86019;SDS011;76596;51.056;-1.798;2024-03-02T05:41:24;4.20;;;1.47;;
86019;SDS011;76596;51.056;-1.798;2024-03-02T05:43:49;2.47;;;0.90;;
86019;SDS011;76596;51.056;-1.798;2024-03-02T05:46:15;2.15;;;0.90;;
86019;SDS011;76596;51.056;-1.798;2024-03-02T05:48:40;1.08;;;0.68;;
86019;SDS011;76596;51.056;-1.798;2024-03-02T05:51:05;1.40;;;0.33;;
86019;SDS011;76596;51.056;-1.798;2024-03-02T05:53:31;1.50;;;0.83;;
86019;SDS011;76596;51.056;-1.798;2024-03-02T05:58:22;1.50;;;0.73;;
86019;SDS011;76596;51.056;-1.798;2024-03-02T06:01:03;1.50;;;0.85;;
86019;SDS011;76596;51.056;-1.798;2024-03-02T06:03:30;1.38;;;0.88;;
86019;SDS011;76596;51.056;-1.798;2024-03-02T06:05:55;1.20;;;0.75;;
86019;SDS011;76596;51.056;-1.798;2024-03-02T06:08:20;1.75;;;0.73;;
86019;SDS011;76596;51.056;-1.798;2024-03-02T06:10:46;1.40;;;0.67;;
86019;SDS011;76596;51.056;-1.798;2024-03-02T06:13:11;3.47;;;0.90;;
86019;SDS011;76596;51.056;-1.798;2024-03-02T06:15:36;0.67;;;0.53;;
86019;SDS011;76596;51.056;-1.798;2024-03-02T06:18:02;0.70;;;0.60;;
86019;SDS011;76596;51.056;-1.798;2024-03-02T06:20:27;1.42;;;0.70;;
86019;SDS011;76596;51.056;-1.798;2024-03-02T06:22:55;1.45;;;0.95;;
86019;SDS011;76596;51.056;-1.798;2024-03-02T06:25:21;1.00;;;0.60;;
86019;SDS011;76596;51.056;-1.798;2024-03-02T06:27:46;1.52;;;0.55;;
86019;SDS011;76596;51.056;-1.798;2024-03-02T06:30:12;2.40;;;1.07;;
86019;SDS011;76596;51.056;-1.798;2024-03-02T06:32:37;1.85;;;0.93;;
86019;SDS011;76596;51.056;-1.798;2024-03-02T06:35:03;1.40;;;1.17;;
86019;SDS011;76596;51.056;-1.798;2024-03-02T06:37:29;2.25;;;0.98;;
86019;SDS011;76596;51.056;-1.798;2024-03-02T06:39:55;1.40;;;0.75;;
86019;SDS011;76596;51.056;-1.798;2024-03-02T06:42:20;2.10;;;1.30;;
86019;SDS011;76596;51.056;-1.798;2024-03-02T06:44:45;1.57;;;0.90;;
86019;SDS011;76596;51.056;-1.798;2024-03-02T06:47:11;1.45;;;0.70;;
86019;SDS011;76596;51.056;-1.798;2024-03-02T06:49:36;1.47;;;0.93;;
86019;SDS011;76596;51.056;-1.798;2024-03-02T06:52:02;0.67;;;0.60;;
86019;SDS011;76596;51.056;-1.798;2024-03-02T06:54:27;1.63;;;0.93;;
86019;SDS011;76596;51.056;-1.798;2024-03-02T06:56:52;2.00;;;1.17;;
86019;SDS011;76596;51.056;-1.798;2024-03-02T06:59:18;1.30;;;0.77;;
86019;SDS011;76596;51.056;-1.798;2024-03-02T07:01:43;1.37;;;0.77;;
86019;SDS011;76596;51.056;-1.798;2024-03-02T07:04:08;1.25;;;0.90;;
86019;SDS011;76596;51.056;-1.798;2024-03-02T07:08:59;1.40;;;0.87;;
86019;SDS011;76596;51.056;-1.798;2024-03-02T07:13:50;0.60;;;0.53;;
86019;SDS011;76596;51.056;-1.798;2024-03-02T07:16:15;4.90;;;0.60;;
86019;SDS011;76596;51.056;-1.798;2024-03-02T07:18:54;1.05;;;0.47;;
86019;SDS011;76596;51.056;-1.798;2024-03-02T07:21:21;0.98;;;0.52;;
86019;SDS011;76596;51.056;-1.798;2024-03-02T07:23:47;3.50;;;1.23;;
86019;SDS011;76596;51.056;-1.798;2024-03-02T07:26:13;0.60;;;0.52;;
86019;SDS011;76596;51.056;-1.798;2024-03-02T07:28:40;2.20;;;1.25;;
86019;SDS011;76596;51.056;-1.798;2024-03-02T07:31:06;1.73;;;0.85;;
86019;SDS011;76596;51.056;-1.798;2024-03-02T07:33:32;2.10;;;1.35;;
86019;SDS011;76596;51.056;-1.798;2024-03-02T07:35:57;1.42;;;0.57;;
86019;SDS011;76596;51.056;-1.798;2024-03-02T07:38:27;0.82;;;0.63;;
86019;SDS011;76596;51.056;-1.798;2024-03-02T07:40:52;2.25;;;1.13;;
86019;SDS011;76596;51.056;-1.798;2024-03-02T07:43:18;1.50;;;1.10;;
86019;SDS011;76596;51.056;-1.798;2024-03-02T07:45:44;1.35;;;0.82;;
86019;SDS011;76596;51.056;-1.798;2024-03-02T07:48:11;1.25;;;0.88;;
86019;SDS011;76596;51.056;-1.798;2024-03-02T07:50:37;2.17;;;0.82;;
86019;SDS011;76596;51.056;-1.798;2024-03-02T07:53:03;5.05;;;2.42;;
86019;SDS011;76596;51.056;-1.798;2024-03-02T07:55:29;2.90;;;1.65;;
86019;SDS011;76596;51.056;-1.798;2024-03-02T07:57:55;1.83;;;1.40;;
86019;SDS011;76596;51.056;-1.798;2024-03-02T08:00:21;2.30;;;1.25;;
86019;SDS011;76596;51.056;-1.798;2024-03-02T08:02:48;2.88;;;1.42;;
86019;SDS011;76596;51.056;-1.798;2024-03-02T08:05:14;2.33;;;1.08;;
86019;SDS011;76596;51.056;-1.798;2024-03-02T08:07:39;1.17;;;0.82;;
86019;SDS011;76596;51.056;-1.798;2024-03-02T08:10:06;1.35;;;0.75;;
86019;SDS011;76596;51.056;-1.798;2024-03-02T08:12:31;3.83;;;1.05;;
86019;SDS011;76596;51.056;-1.798;2024-03-02T08:14:57;1.05;;;0.60;;
86019;SDS011;76596;51.056;-1.798;2024-03-02T08:17:22;2.77;;;1.30;;
86019;SDS011;76596;51.056;-1.798;2024-03-02T08:19:47;2.70;;;1.53;;
86019;SDS011;76596;51.056;-1.798;2024-03-02T08:22:14;3.65;;;1.77;;
86019;SDS011;76596;51.056;-1.798;2024-03-02T08:24:40;5.85;;;2.22;;
86019;SDS011;76596;51.056;-1.798;2024-03-02T08:27:06;5.63;;;2.60;;
86019;SDS011;76596;51.056;-1.798;2024-03-02T08:29:31;4.93;;;2.08;;
86019;SDS011;76596;51.056;-1.798;2024-03-02T08:31:57;3.63;;;1.93;;
86019;SDS011;76596;51.056;-1.798;2024-03-02T08:34:22;4.47;;;2.50;;
86019;SDS011;76596;51.056;-1.798;2024-03-02T08:36:47;4.80;;;2.43;;
86019;SDS011;76596;51.056;-1.798;2024-03-02T08:39:13;5.53;;;2.42;;
86019;SDS011;76596;51.056;-1.798;2024-03-02T08:41:49;6.38;;;3.28;;
86019;SDS011;76596;51.056;-1.798;2024-03-02T08:44:14;4.18;;;2.50;;
86019;SDS011;76596;51.056;-1.798;2024-03-02T08:46:40;7.05;;;3.20;;
86019;SDS011;76596;51.056;-1.798;2024-03-02T08:49:06;5.75;;;3.13;;
86019;SDS011;76596;51.056;-1.798;2024-03-02T08:51:32;9.20;;;3.10;;
86019;SDS011;76596;51.056;-1.798;2024-03-02T08:53:58;4.18;;;2.05;;
86019;SDS011;76596;51.056;-1.798;2024-03-02T08:56:24;5.85;;;2.72;;
86019;SDS011;76596;51.056;-1.798;2024-03-02T08:58:50;6.05;;;2.67;;
86019;SDS011;76596;51.056;-1.798;2024-03-02T09:01:16;14.13;;;2.90;;
86019;SDS011;76596;51.056;-1.798;2024-03-02T09:03:43;8.57;;;2.72;;
86019;SDS011;76596;51.056;-1.798;2024-03-02T09:06:10;5.85;;;2.90;;
86019;SDS011;76596;51.056;-1.798;2024-03-02T09:08:35;9.20;;;3.70;;
86019;SDS011;76596;51.056;-1.798;2024-03-02T09:11:01;7.03;;;3.08;;
86019;SDS011;76596;51.056;-1.798;2024-03-02T09:13:28;7.43;;;2.97;;
86019;SDS011;76596;51.056;-1.798;2024-03-02T09:15:54;10.52;;;3.72;;
86019;SDS011;76596;51.056;-1.798;2024-03-02T09:18:19;5.55;;;3.08;;
86019;SDS011;76596;51.056;-1.798;2024-03-02T09:20:44;7.37;;;3.67;;
86019;SDS011;76596;51.056;-1.798;2024-03-02T09:23:10;8.55;;;3.50;;
86019;SDS011;76596;51.056;-1.798;2024-03-02T09:25:36;5.85;;;3.08;;
86019;SDS011;76596;51.056;-1.798;2024-03-02T09:28:02;6.80;;;3.05;;
86019;SDS011;76596;51.056;-1.798;2024-03-02T09:30:28;7.47;;;3.45;;
86019;SDS011;76596;51.056;-1.798;2024-03-02T09:32:53;5.22;;;2.58;;
86019;SDS011;76596;51.056;-1.798;2024-03-02T09:35:18;5.25;;;2.90;;
86019;SDS011;76596;51.056;-1.798;2024-03-02T09:37:45;7.45;;;3.78;;
86019;SDS011;76596;51.056;-1.798;2024-03-02T09:40:10;5.80;;;2.67;;
86019;SDS011;76596;51.056;-1.798;2024-03-02T09:42:36;7.30;;;3.17;;
86019;SDS011;76596;51.056;-1.798;2024-03-02T09:45:02;7.93;;;2.80;;
86019;SDS011;76596;51.056;-1.798;2024-03-02T09:47:28;4.35;;;2.30;;
86019;SDS011;76596;51.056;-1.798;2024-03-02T09:49:54;7.47;;;3.97;;
86019;SDS011;76596;51.056;-1.798;2024-03-02T09:52:20;5.57;;;2.80;;
86019;SDS011;76596;51.056;-1.798;2024-03-02T09:54:47;9.00;;;3.15;;
86019;SDS011;76596;51.056;-1.798;2024-03-02T09:57:13;4.85;;;2.63;;
86019;SDS011;76596;51.056;-1.798;2024-03-02T09:59:39;4.57;;;2.65;;
86019;SDS011;76596;51.056;-1.798;2024-03-02T10:02:04;5.33;;;2.77;;
86019;SDS011;76596;51.056;-1.798;2024-03-02T10:04:32;1.52;;;0.95;;
86019;SDS011;76596;51.056;-1.798;2024-03-02T10:07:10;4.00;;;2.50;;
86019;SDS011;76596;51.056;-1.798;2024-03-02T10:09:47;6.65;;;3.08;;
86019;SDS011;76596;51.056;-1.798;2024-03-02T10:12:14;5.20;;;2.90;;
86019;SDS011;76596;51.056;-1.798;2024-03-02T10:14:43;5.80;;;2.53;;
86019;SDS011;76596;51.056;-1.798;2024-03-02T10:17:09;6.15;;;2.92;;
86019;SDS011;76596;51.056;-1.798;2024-03-02T10:19:37;6.65;;;3.00;;
86019;SDS011;76596;51.056;-1.798;2024-03-02T10:22:04;4.88;;;3.08;;
86019;SDS011;76596;51.056;-1.798;2024-03-02T10:24:43;5.90;;;3.33;;
86019;SDS011;76596;51.056;-1.798;2024-03-02T10:29:40;4.30;;;2.90;;
86019;SDS011;76596;51.056;-1.798;2024-03-02T10:32:05;3.85;;;2.00;;
86019;SDS011;76596;51.056;-1.798;2024-03-02T10:34:34;9.45;;;2.55;;
86019;SDS011;76596;51.056;-1.798;2024-03-02T10:37:01;3.00;;;1.88;;
86019;SDS011;76596;51.056;-1.798;2024-03-02T10:39:26;3.83;;;1.92;;
86019;SDS011;76596;51.056;-1.798;2024-03-02T10:41:53;3.17;;;1.73;;
86019;SDS011;76596;51.056;-1.798;2024-03-02T10:44:20;4.35;;;2.20;;
86019;SDS011;76596;51.056;-1.798;2024-03-02T10:46:47;2.50;;;2.05;;
86019;SDS011;76596;51.056;-1.798;2024-03-02T10:49:15;6.15;;;2.38;;
86019;SDS011;76596;51.056;-1.798;2024-03-02T10:51:42;3.70;;;2.10;;
86019;SDS011;76596;51.056;-1.798;2024-03-02T10:54:07;3.45;;;2.33;;
86019;SDS011;76596;51.056;-1.798;2024-03-02T10:56:36;3.00;;;1.90;;
86019;SDS011;76596;51.056;-1.798;2024-03-02T11:01:51;3.47;;;2.47;;
86019;SDS011;76596;51.056;-1.798;2024-03-02T11:04:20;3.15;;;1.95;;
86019;SDS011;76596;51.056;-1.798;2024-03-02T11:06:51;3.10;;;1.98;;
86019;SDS011;76596;51.056;-1.798;2024-03-02T11:09:20;3.38;;;1.80;;
86019;SDS011;76596;51.056;-1.798;2024-03-02T11:14:29;2.75;;;2.03;;
86019;SDS011;76596;51.056;-1.798;2024-03-02T11:16:56;2.65;;;1.90;;
86019;SDS011;76596;51.056;-1.798;2024-03-02T11:19:22;2.72;;;1.80;;
86019;SDS011;76596;51.056;-1.798;2024-03-02T11:21:49;3.35;;;2.00;;
86019;SDS011;76596;51.056;-1.798;2024-03-02T11:26:47;2.65;;;2.00;;
86019;SDS011;76596;51.056;-1.798;2024-03-02T11:32:06;4.40;;;2.65;;
86019;SDS011;76596;51.056;-1.798;2024-03-02T11:34:42;3.03;;;2.15;;
86019;SDS011;76596;51.056;-1.798;2024-03-02T11:37:17;2.95;;;2.38;;
86019;SDS011;76596;51.056;-1.798;2024-03-02T11:39:45;4.10;;;2.40;;
86019;SDS011;76596;51.056;-1.798;2024-03-02T11:42:12;3.90;;;2.42;;
86019;SDS011;76596;51.056;-1.798;2024-03-02T11:44:42;3.95;;;2.58;;
86019;SDS011;76596;51.056;-1.798;2024-03-02T11:47:10;3.08;;;2.25;;
86019;SDS011;76596;51.056;-1.798;2024-03-02T11:49:43;3.80;;;2.60;;
86019;SDS011;76596;51.056;-1.798;2024-03-02T11:52:11;3.00;;;2.13;;
86019;SDS011;76596;51.056;-1.798;2024-03-02T11:54:38;5.57;;;3.35;;
86019;SDS011;76596;51.056;-1.798;2024-03-02T11:57:05;2.90;;;2.35;;
86019;SDS011;76596;51.056;-1.798;2024-03-02T11:59:31;3.38;;;2.42;;
86019;SDS011;76596;51.056;-1.798;2024-03-02T12:01:57;4.82;;;3.33;;
86019;SDS011;76596;51.056;-1.798;2024-03-02T12:04:24;3.55;;;2.45;;
86019;SDS011;76596;51.056;-1.798;2024-03-02T12:06:59;6.28;;;3.35;;
86019;SDS011;76596;51.056;-1.798;2024-03-02T12:09:28;6.15;;;3.65;;
86019;SDS011;76596;51.056;-1.798;2024-03-02T12:12:04;8.48;;;3.47;;
86019;SDS011;76596;51.056;-1.798;2024-03-02T12:14:34;6.65;;;4.45;;
86019;SDS011;76596;51.056;-1.798;2024-03-02T12:17:04;8.05;;;4.55;;
86019;SDS011;76596;51.056;-1.798;2024-03-02T12:19:31;6.07;;;3.85;;
86019;SDS011;76596;51.056;-1.798;2024-03-02T12:21:57;10.73;;;5.07;;
86019;SDS011;76596;51.056;-1.798;2024-03-02T12:24:24;7.43;;;4.32;;
86019;SDS011;76596;51.056;-1.798;2024-03-02T12:26:51;6.38;;;3.58;;
86019;SDS011;76596;51.056;-1.798;2024-03-02T12:29:18;5.93;;;3.45;;
86019;SDS011;76596;51.056;-1.798;2024-03-02T12:31:45;3.47;;;2.72;;
86019;SDS011;76596;51.056;-1.798;2024-03-02T12:34:11;5.73;;;3.57;;
86019;SDS011;76596;51.056;-1.798;2024-03-02T12:36:39;6.35;;;3.50;;
86019;SDS011;76596;51.056;-1.798;2024-03-02T12:39:04;7.78;;;3.95;;
86019;SDS011;76596;51.056;-1.798;2024-03-02T12:41:30;4.80;;;3.30;;
86019;SDS011;76596;51.056;-1.798;2024-03-02T12:43:55;4.15;;;3.10;;
86019;SDS011;76596;51.056;-1.798;2024-03-02T12:46:21;4.90;;;2.90;;
86019;SDS011;76596;51.056;-1.798;2024-03-02T12:48:46;5.15;;;3.17;;
86019;SDS011;76596;51.056;-1.798;2024-03-02T12:51:12;7.93;;;3.70;;
86019;SDS011;76596;51.056;-1.798;2024-03-02T12:53:37;4.28;;;3.17;;
86019;SDS011;76596;51.056;-1.798;2024-03-02T12:56:02;7.30;;;3.27;;
86019;SDS011;76596;51.056;-1.798;2024-03-02T12:58:29;5.50;;;4.07;;
86019;SDS011;76596;51.056;-1.798;2024-03-02T13:01:08;4.25;;;2.95;;
86019;SDS011;76596;51.056;-1.798;2024-03-02T13:03:39;5.45;;;3.35;;
86019;SDS011;76596;51.056;-1.798;2024-03-02T13:06:05;5.23;;;3.33;;
86019;SDS011;76596;51.056;-1.798;2024-03-02T13:08:31;4.93;;;3.42;;
86019;SDS011;76596;51.056;-1.798;2024-03-02T13:10:58;6.75;;;2.35;;
86019;SDS011;76596;51.056;-1.798;2024-03-02T13:13:23;3.55;;;2.80;;
86019;SDS011;76596;51.056;-1.798;2024-03-02T13:15:49;5.25;;;2.60;;
86019;SDS011;76596;51.056;-1.798;2024-03-02T13:18:14;2.73;;;2.07;;
86019;SDS011;76596;51.056;-1.798;2024-03-02T13:20:39;3.80;;;2.03;;
86019;SDS011;76596;51.056;-1.798;2024-03-02T13:23:05;4.43;;;1.92;;
86019;SDS011;76596;51.056;-1.798;2024-03-02T13:25:30;8.33;;;2.80;;
86019;SDS011;76596;51.056;-1.798;2024-03-02T13:27:57;2.53;;;1.85;;
86019;SDS011;76596;51.056;-1.798;2024-03-02T13:30:23;3.63;;;1.92;;
86019;SDS011;76596;51.056;-1.798;2024-03-02T13:32:48;4.57;;;1.63;;
86019;SDS011;76596;51.056;-1.798;2024-03-02T13:35:14;1.80;;;1.70;;
86019;SDS011;76596;51.056;-1.798;2024-03-02T13:37:39;5.40;;;2.28;;
86019;SDS011;76596;51.056;-1.798;2024-03-02T13:40:05;4.27;;;1.97;;
86019;SDS011;76596;51.056;-1.798;2024-03-02T13:42:30;2.30;;;1.70;;
86019;SDS011;76596;51.056;-1.798;2024-03-02T13:44:56;4.05;;;2.03;;
86019;SDS011;76596;51.056;-1.798;2024-03-02T13:47:22;3.38;;;2.35;;
86019;SDS011;76596;51.056;-1.798;2024-03-02T13:49:47;2.30;;;1.85;;
86019;SDS011;76596;51.056;-1.798;2024-03-02T13:52:14;2.55;;;1.70;;
86019;SDS011;76596;51.056;-1.798;2024-03-02T13:54:41;2.25;;;1.60;;
86019;SDS011;76596;51.056;-1.798;2024-03-02T13:57:08;4.07;;;1.50;;
86019;SDS011;76596;51.056;-1.798;2024-03-02T13:59:35;2.67;;;1.30;;
86019;SDS011;76596;51.056;-1.798;2024-03-02T14:02:01;2.33;;;1.58;;
86019;SDS011;76596;51.056;-1.798;2024-03-02T14:04:29;2.05;;;1.13;;
86019;SDS011;76596;51.056;-1.798;2024-03-02T14:06:55;5.60;;;1.50;;
86019;SDS011;76596;51.056;-1.798;2024-03-02T14:09:21;4.85;;;2.83;;
86019;SDS011;76596;51.056;-1.798;2024-03-02T14:11:47;3.05;;;1.23;;
86019;SDS011;76596;51.056;-1.798;2024-03-02T14:14:14;2.78;;;1.63;;
86019;SDS011;76596;51.056;-1.798;2024-03-02T14:16:39;2.93;;;1.40;;
86019;SDS011;76596;51.056;-1.798;2024-03-02T14:19:05;2.53;;;1.63;;
86019;SDS011;76596;51.056;-1.798;2024-03-02T14:21:30;2.10;;;0.95;;
86019;SDS011;76596;51.056;-1.798;2024-03-02T14:23:56;4.33;;;1.20;;
86019;SDS011;76596;51.056;-1.798;2024-03-02T14:26:21;4.77;;;1.83;;
86019;SDS011;76596;51.056;-1.798;2024-03-02T14:28:47;2.72;;;1.08;;
86019;SDS011;76596;51.056;-1.798;2024-03-02T14:31:12;2.43;;;1.07;;
86019;SDS011;76596;51.056;-1.798;2024-03-02T14:33:38;3.22;;;0.90;;
86019;SDS011;76596;51.056;-1.798;2024-03-02T14:36:03;3.13;;;1.20;;
86019;SDS011;76596;51.056;-1.798;2024-03-02T14:38:29;1.63;;;1.23;;
86019;SDS011;76596;51.056;-1.798;2024-03-02T14:40:55;1.48;;;1.08;;
86019;SDS011;76596;51.056;-1.798;2024-03-02T14:43:21;3.47;;;1.83;;
86019;SDS011;76596;51.056;-1.798;2024-03-02T14:45:47;2.13;;;0.93;;
86019;SDS011;76596;51.056;-1.798;2024-03-02T14:48:13;2.53;;;0.88;;
86019;SDS011;76596;51.056;-1.798;2024-03-02T14:50:38;1.60;;;1.00;;